Latest Weather Observations for Mount Gellibrand

IDV60801

Issued at 8:05 pm EDT Wednesday 28 January 2015 (issued every 30 minutes, with the page automatically refreshed every 10 minutes)

About weather observations | Map of weather stations | Latest weather observations for VIC | Other Formats
Station Details ID: 090035 Name: MOUNT GELLIBRAND Lat: -38.23 Lon: 143.79 Height: 261.0 m
Data from the previous 72 hours. | See also: Recent months at Mount Gellibrand
Date/Time
EDT
Temp
°C
App
Temp
°C
Dew
Point
Rel
Hum
%
Delta-T
°C
Wind Press
QNH
hPa
Press
MSL
hPa
Rain
since 9 am
mm
Dir
 
Spd
km/h
Gust
km/h
Spd
kts
Gust
kts
28/08:00pm 15.3 6.6 7.8 61 3.8 SE 43 54 23 29 1020.1 1019.3 0.0
28/07:30pm 16.1 7.6 7.1 55 4.5 SE 41 50 22 27 1019.7 1019.0 0.0
28/07:00pm 16.9 8.0 7.0 52 5.0 SE 43 54 23 29 1019.5 1018.8 0.0
28/06:30pm 17.6 8.6 7.4 51 5.2 SE 44 54 24 29 1019.4 1018.7 0.0
28/06:00pm 17.9 8.5 7.3 50 5.4 SE 46 59 25 32 1019.3 1018.6 0.0
28/05:30pm 18.3 9.3 8.8 54 5.0 SE 46 54 25 29 1019.2 1018.5 0.0
28/05:00pm 19.1 11.1 9.0 52 5.3 SE 41 50 22 27 1019.3 1018.6 0.0
28/04:30pm 19.5 11.0 9.1 51 5.5 SE 44 56 24 30 1019.2 1018.5 0.0
28/04:00pm 19.4 10.8 9.0 51 5.5 SE 44 56 24 30 1019.2 1018.5 0.0
28/03:30pm 18.8 9.8 8.7 52 5.3 SE 46 59 25 32 1019.3 1018.6 0.0
28/03:00pm 19.1 10.5 8.7 51 5.5 SE 44 59 24 32 1019.3 1018.6 0.0
28/02:30pm 19.4 10.8 9.0 51 5.5 SE 44 59 24 32 1019.4 1018.7 0.0
28/02:00pm 19.7 11.5 8.1 47 6.1 SE 41 50 22 27 1019.5 1018.8 0.0
28/01:30pm 21.1 13.2 9.4 47 6.3 SE 41 56 22 30 1019.5 1018.8 0.0
28/01:00pm 19.3 11.0 9.2 52 5.4 SE 43 54 23 29 1019.6 1018.9 0.0
28/12:30pm 20.0 12.6 9.9 52 5.5 ESE 39 46 21 25 1019.4 1018.7 0.0
28/12:00pm 18.5 11.5 8.5 52 5.2 SE 35 48 19 26 1019.6 1018.9 0.0
28/11:30am 17.2 10.6 7.8 54 4.8 ESE 32 41 17 22 1019.7 1019.0 0.0
28/11:00am 18.5 11.9 8.7 53 5.1 ESE 33 46 18 25 1019.7 1019.0 0.0
28/10:30am 18.4 11.6 7.5 49 5.6 ESE 33 41 18 22 1019.4 1018.7 0.0
28/10:00am 16.7 11.2 9.1 61 4.0 SE 28 37 15 20 1019.4 1018.7 0.0
28/09:30am 15.5 11.5 9.2 66 3.3 SE 20 30 11 16 1019.3 1018.6 0.0
28/09:00am 15.8 12.4 10.6 71 2.8 SE 19 26 10 14 1019.2 1018.5 0.0
28/08:30am 14.4 12.5 10.6 78 2.0 SSE 11 17 6 9 1019.0 1018.3 0.0
28/08:00am 13.8 11.9 10.4 80 1.8 E 11 13 6 7 1018.6 1017.8 0.0
28/07:30am 12.8 10.7 9.8 82 1.6 ESE 11 13 6 7 1018.3 1017.5 0.0
28/07:00am 11.7 9.1 9.4 86 1.2 SSE 13 15 7 8 1017.9 1017.1 0.0
28/06:30am 11.0 8.3 8.8 86 1.1 SSE 13 15 7 8 1017.9 1017.1 0.0
28/06:00am 11.2 8.2 9.1 87 1.1 SSE 15 17 8 9 1017.7 1016.9 0.0
28/05:30am 11.3 8.2 8.7 84 1.3 S 15 20 8 11 1017.3 1016.5 0.0
28/05:00am 11.1 7.1 8.3 83 1.4 S 19 24 10 13 1017.2 1016.4 0.0
28/04:30am 10.6 6.5 8.0 84 1.3 S 19 24 10 13 1017.2 1016.4 0.0
28/04:00am 10.7 7.4 7.9 83 1.4 S 15 19 8 10 1017.3 1016.5 0.0
28/03:30am 10.6 6.8 7.5 81 1.5 SSW 17 19 9 10 1017.5 1016.7 0.0
28/03:00am 10.8 7.0 7.5 80 1.6 S 17 19 9 10 1017.7 1016.9 0.0
28/02:30am 11.3 7.0 7.2 76 2.0 S 19 20 10 11 1018.0 1017.2 0.0
28/02:00am 10.6 6.3 7.1 79 1.7 S 19 22 10 12 1018.2 1017.4 0.0
28/01:30am 11.5 7.2 7.2 75 2.1 SSE 19 22 10 12 1018.5 1017.7 0.0
28/01:00am 11.3 7.0 7.2 76 2.0 SSE 19 22 10 12 1018.8 1018.1 0.0
28/12:30am 11.5 7.4 8.0 79 1.7 S 19 20 10 11 1018.8 1018.1 0.0
28/12:00am 11.7 7.5 8.2 79 1.7 SSE 20 26 11 14 1018.7 1018.0 0.0
 
Date/Time
EDT
Temp
°C
App
Temp
°C
Dew
Point
Rel
Hum
%
Delta-T
°C
Wind Press
QNH
hPa
Press
MSL
hPa
Rain
since 9 am
mm
Dir
 
Spd
km/h
Gust
km/h
Spd
kts
Gust
kts
27/11:30pm 12.0 7.8 8.1 77 1.9 SSE 20 24 11 13 1018.8 1018.1 0.0
27/11:00pm 12.4 8.2 8.1 75 2.1 SSE 20 24 11 13 1018.8 1018.1 0.0
27/10:30pm 12.5 7.3 7.4 71 2.5 S 24 35 13 19 1018.9 1018.2 0.0
27/10:00pm 12.4 8.1 7.7 73 2.3 SSE 20 26 11 14 1018.8 1018.1 0.0
27/09:30pm 13.1 7.3 8.0 71 2.6 SSE 28 32 15 17 1018.7 1018.0 0.0
27/09:00pm 13.4 9.3 7.8 69 2.8 SSE 19 22 10 12 1018.5 1017.7 0.0
27/08:30pm 13.5 8.7 7.3 66 3.1 SSE 22 28 12 15 1018.6 1017.8 0.0
27/08:00pm 13.9 9.0 6.7 62 3.5 SSE 22 30 12 16 1018.3 1017.5 0.0
27/07:30pm 14.1 8.4 6.7 61 3.6 SSE 26 32 14 17 1018.1 1017.3 0.0
27/07:00pm 14.5 8.1 6.8 60 3.8 SSE 30 37 16 20 1017.8 1017.0 0.0
27/06:30pm 14.6 8.5 6.4 58 4.0 SSE 28 35 15 19 1017.5 1016.7 0.0
27/06:00pm 15.0 8.3 5.5 53 4.6 SSE 30 39 16 21 1017.3 1016.5 0.0
27/05:30pm 16.1 9.2 4.8 47 5.4 SSE 30 39 16 21 1017.4 1016.6 0.0
27/05:00pm 15.8 9.6 6.0 52 4.8 SSE 28 41 15 22 1017.6 1016.8 0.0
27/04:30pm 15.7 9.1 6.2 53 4.7 SSE 30 41 16 22 1017.7 1016.9 0.0
27/04:00pm 15.5 8.4 6.5 55 4.4 SSE 33 41 18 22 1017.4 1016.6 0.0
27/03:30pm 16.4 10.0 6.8 53 4.8 SSE 30 39 16 21 1017.5 1016.7 0.0
27/03:00pm 17.7 11.4 5.6 45 5.9 SSE 28 35 15 19 1017.5 1016.7 0.0
27/02:30pm 17.3 11.3 5.3 45 5.9 SE 26 35 14 19 1017.5 1016.7 0.0
27/02:00pm 17.8 11.1 5.7 45 6.0 SSE 30 39 16 21 1017.6 1016.8 0.0
27/01:30pm 17.9 12.6 5.2 43 6.2 SSE 22 37 12 20 1017.7 1016.9 0.0
27/01:00pm 17.3 11.4 5.6 46 5.7 SSE 26 35 14 19 1017.9 1017.1 0.0
27/12:30pm 16.2 10.6 5.2 48 5.3 S 24 32 13 17 1018.1 1017.3 0.0
27/12:00pm 16.2 11.5 6.1 51 5.0 SSE 20 28 11 15 1018.3 1017.5 0.0
27/11:30am 16.6 11.2 6.4 51 5.1 SSE 24 33 13 18 1018.4 1017.6 0.0
27/11:00am 17.1 12.1 6.3 49 5.4 SE 22 30 12 16 1018.4 1017.6 0.0
27/10:30am 15.0 9.9 5.8 54 4.5 SE 22 30 12 16 1018.5 1017.7 0.0
27/10:00am 14.5 8.9 5.6 55 4.3 SE 24 30 13 16 1018.5 1017.7 0.0
27/09:30am 13.6 8.4 5.7 59 3.8 SSE 22 32 12 17 1018.4 1017.6 0.0
27/09:00am 14.7 9.3 6.5 58 4.0 SSE 24 33 13 18 1018.1 1017.3 0.0
27/08:30am 13.4 8.5 6.7 64 3.3 SSE 22 28 12 15 1017.8 1017.0 0.0
27/08:00am 12.0 7.8 7.5 74 2.2 SSE 19 22 10 12 1017.5 1016.7 0.0
27/07:30am 10.8 6.9 7.1 78 1.8 SSE 17 20 9 11 1017.3 1016.5 0.0
27/07:00am 9.9 5.9 6.8 81 1.5 S 17 19 9 10 1017.3 1016.5 0.0
27/06:30am 10.0 6.1 7.3 83 1.3 SSE 17 20 9 11 1017.1 1016.3 0.0
27/06:00am 10.1 6.3 7.5 84 1.3 S 17 19 9 10 1016.9 1016.1 0.0
27/05:30am 10.4 6.6 7.5 82 1.4 S 17 20 9 11 1016.9 1016.1 0.0
27/05:00am 10.3 6.5 7.4 82 1.4 S 17 20 9 11 1016.8 1016.0 0.0
27/04:30am 9.9 6.4 7.0 82 1.4 SSW 15 20 8 11 1017.0 1016.2 0.0
27/04:00am 9.2 6.3 6.3 82 1.4 SSW 11 15 6 8 1017.0 1016.2 0.0
27/03:30am 9.4 6.4 6.1 80 1.5 S 11 13 6 7 1017.0 1016.2 0.0
27/03:00am 9.3 6.0 6.4 82 1.4 S 13 15 7 8 1017.3 1016.5 0.0
27/02:30am 9.3 6.3 6.0 80 1.5 S 11 13 6 7 1017.3 1016.5 0.0
27/02:00am 9.7 6.7 6.1 78 1.7 S 11 13 6 7 1017.5 1016.7 0.0
27/01:30am 9.8 6.8 6.2 78 1.7 S 11 13 6 7 1017.7 1016.9 0.0
27/01:00am 9.8 6.5 6.2 78 1.7 S 13 15 7 8 1017.8 1017.0 0.0
27/12:30am 9.8 6.1 6.2 78 1.7 S 15 17 8 9 1018.0 1017.2 0.0
27/12:00am 10.0 6.3 6.2 77 1.8 S 15 17 8 9 1018.1 1017.3 0.0
 
Date/Time
EDT
Temp
°C
App
Temp
°C
Dew
Point
Rel
Hum
%
Delta-T
°C
Wind Press
QNH
hPa
Press
MSL
hPa
Rain
since 9 am
mm
Dir
 
Spd
km/h
Gust
km/h
Spd
kts
Gust
kts
26/11:30pm 10.1 6.4 6.1 76 1.9 S 15 17 8 9 1018.2 1017.4 0.0
26/11:00pm 10.4 6.3 6.2 75 2.0 S 17 17 9 9 1018.4 1017.6 0.0
26/10:30pm 10.5 6.3 5.9 73 2.2 SSE 17 19 9 10 1018.5 1017.7 0.0
26/10:00pm 11.3 6.7 5.8 69 2.6 SSE 19 22 10 12 1018.2 1017.4 0.0
26/09:30pm 11.6 7.0 5.7 67 2.8 SSE 19 22 10 12 1018.2 1017.4 0.0
26/09:00pm 12.0 6.8 5.4 64 3.1 SSE 22 30 12 16 1017.8 1017.0 0.0
26/08:30pm 12.5 6.9 5.4 62 3.3 SSE 24 30 13 16 1017.6 1016.8 0.0
26/08:00pm 13.0 7.4 5.2 59 3.7 SE 24 32 13 17 1017.5 1016.7 0.0
26/07:30pm 13.8 8.3 5.7 58 3.9 SE 24 30 13 16 1017.1 1016.3 0.0
26/07:00pm 14.4 7.9 4.7 52 4.6 SE 28 37 15 20 1016.7 1015.9 0.0
26/06:30pm 15.1 9.2 5.6 53 4.6 SE 26 32 14 17 1016.5 1015.7 0.0
26/06:00pm 15.4 10.3 5.9 53 4.6 SSE 22 28 12 15 1016.6 1015.8 0.0
26/05:30pm 15.3 10.6 6.1 54 4.5 SSE 20 28 11 15 1016.5 1015.7 0.0
26/05:00pm 15.6 9.8 6.1 53 4.6 SE 26 33 14 18 1016.7 1015.9 0.0
26/04:30pm 16.0 10.9 6.2 52 4.8 SE 22 30 12 16 1016.8 1016.0 0.0
26/04:00pm 14.5 8.8 6.6 59 3.9 SSE 26 32 14 17 1017.0 1016.2 0.0
26/03:30pm 15.6 11.0 6.3 54 4.6 SSE 20 30 11 16 1016.8 1016.0 0.0
26/03:00pm 15.7 11.6 6.4 54 4.6 SSE 17 22 9 12 1016.7 1015.9 0.0
26/02:30pm 14.8 9.0 6.4 57 4.1 S 26 33 14 18 1016.8 1016.0 0.0
26/02:00pm 16.3 12.2 6.2 51 5.0 SSE 17 24 9 13 1016.9 1016.1 0.0
26/01:30pm 16.2 11.7 6.1 51 5.0 SSE 19 26 10 14 1017.0 1016.2 0.0
26/01:00pm 16.0 11.8 5.9 51 4.9 S 17 24 9 13 1017.1 1016.3 0.0
26/12:30pm 17.0 14.1 4.7 44 5.9 S 9 19 5 10 1017.0 1016.2 0.0
26/12:00pm 17.2 13.4 5.8 47 5.6 SSW 15 24 8 13 1017.2 1016.4 0.0
26/11:30am 17.1 13.5 4.8 44 5.9 S 13 26 7 14 1017.3 1016.5 0.0
26/11:00am 15.9 11.8 4.6 47 5.4 S 15 24 8 13 1017.5 1016.7 0.0
26/10:30am 14.7 11.8 6.5 58 4.0 S 11 17 6 9 1017.6 1016.8 0.0
26/10:00am 14.1 11.7 7.2 63 3.4 SSW 9 15 5 8 1017.5 1016.7 0.0
26/09:30am 13.0 11.1 7.5 69 2.7 WSW 7 11 4 6 1017.5 1016.7 0.0
26/09:00am 11.6 9.1 8.1 79 1.7 W 11 15 6 8 1017.3 1016.5 0.0
26/08:30am 10.0 7.8 7.8 86 1.1 W 9 13 5 7 1017.1 1016.3 0.0
26/08:00am 9.9 6.9 7.8 87 1.0 W 13 17 7 9 1016.6 1015.8 0.0
26/07:30am 9.1 6.1 7.7 91 0.7 WNW 13 13 7 7 1016.3 1015.5 0.0
26/07:00am 8.8 6.1 7.4 91 0.7 W 11 13 6 7 1016.0 1015.2 0.0
26/06:30am 8.0 5.2 6.9 93 0.5 WNW 11 13 6 7 1015.5 1014.8 0.0
26/06:00am 7.7 5.6 6.5 92 0.6 WSW 7 11 4 6 1015.2 1014.4 0.0
26/05:30am 8.5 6.1 7.0 90 0.7 W 9 11 5 6 1014.7 1013.9 0.0
26/05:00am 8.3 5.8 6.6 89 0.8 WNW 9 11 5 6 1014.4 1013.6 0.0
26/04:30am 8.6 5.9 7.2 91 0.7 W 11 13 6 7 1014.2 1013.4 0.0
26/04:00am 8.4 6.4 7.3 93 0.5 SW 7 9 4 5 1014.3 1013.5 0.0
26/03:30am 8.2 5.8 7.1 93 0.5 SW 9 11 5 6 1014.1 1013.3 0.0
26/03:00am 8.8 6.2 7.7 93 0.5 SW 11 13 6 7 1013.9 1013.1 0.0
26/02:30am 8.4 5.6 6.9 90 0.7 SW 11 13 6 7 1013.8 1013.0 0.0
26/02:00am 8.7 5.9 6.8 88 0.9 W 11 15 6 8 1013.8 1013.0 0.0
26/01:30am 9.0 5.4 6.6 85 1.1 WSW 15 17 8 9 1013.7 1012.9 0.0
26/01:00am 9.7 5.7 6.8 82 1.4 WSW 17 17 9 9 1013.7 1012.9 0.0
26/12:30am 9.5 5.5 6.8 83 1.3 SW 17 22 9 12 1013.7 1012.9 0.0
26/12:00am 9.9 5.8 6.4 79 1.7 W 17 20 9 11 1013.7 1012.9 0.0
 
Date/Time
EDT
Temp
°C
App
Temp
°C
Dew
Point
Rel
Hum
%
Delta-T
°C
Wind Press
QNH
hPa
Press
MSL
hPa
Rain
since 9 am
mm
Dir
 
Spd
km/h
Gust
km/h
Spd
kts
Gust
kts
25/11:30pm 10.0 5.4 6.3 78 1.7 W 20 24 11 13 1013.5 1012.7 0.0
25/11:00pm 10.1 5.1 6.3 77 1.8 WSW 22 24 12 13 1013.6 1012.8 0.0
25/10:30pm 10.6 5.9 6.0 73 2.2 WSW 20 22 11 12 1013.6 1012.8 0.0
25/10:00pm 10.2 5.4 5.4 72 2.2 SW 20 26 11 14 1013.4 1012.6 0.0
25/09:30pm 11.0 6.2 5.5 69 2.6 SW 20 26 11 14 1013.0 1012.2 0.0
25/09:00pm 11.6 7.2 6.7 72 2.4 WSW 19 22 10 12 1012.7 1011.9 0.0
25/08:30pm 12.3 6.8 6.1 66 3.0 WSW 24 30 13 16 1012.4 1011.6 0.0

Other Formats:

Comma delimited format used in spreadsheet applications
http://www.bom.gov.au/fwo/IDV60801/IDV60801.95845.axf

JavaScript Object Notation format (JSON) in row-major order
http://www.bom.gov.au/fwo/IDV60801/IDV60801.95845.json